Terminal Aerodrome Forecast
Issued by NWS

Home | Current Version | Previous Version | Text Only | Print | Product List | Glossary On
Versions: 1 2 3 4 5 6 7 8 9 10 11 12 13 14 15 16 17 18 19 20 21 22 23
524
FTUS44 KEWX 251120
TAFSSF
TAF
KSSF 251120Z 2512/2612 08005KT P6SM BKN008
     FM251500 14005KT P6SM VCSH BKN025 BKN035
      TEMPO 2516/2520 -TSRA BKN035CB
     FM252000 09007KT P6SM VCTS BKN040CB
     FM260100 06005KT P6SM -SHRA BKN030
     FM260700 04008KT 6SM -SHRA BR OVC009=

USA.gov is the U.S. government's official web portal to all federal, state and local government web resources and services.